sensor_id;sensor_type;location;lat;lon;timestamp;temperature;humidity
32147;DHT22;32190;49.112;8.598;2022-09-03T00:02:51;23.70;41.90
32147;DHT22;32190;49.112;8.598;2022-09-03T00:09:16;23.70;41.90
32147;DHT22;32190;49.112;8.598;2022-09-03T00:15:17;23.70;42.20
32147;DHT22;32190;49.112;8.598;2022-09-03T00:21:15;23.70;42.00
32147;DHT22;32190;49.112;8.598;2022-09-03T00:27:12;23.80;42.10
32147;DHT22;32190;49.112;8.598;2022-09-03T00:33:07;23.80;41.90
32147;DHT22;32190;49.112;8.598;2022-09-03T00:39:00;23.80;42.00
32147;DHT22;32190;49.112;8.598;2022-09-03T00:44:57;23.90;42.10
32147;DHT22;32190;49.112;8.598;2022-09-03T00:51:09;23.90;42.20
32147;DHT22;32190;49.112;8.598;2022-09-03T00:57:21;23.90;42.30
32147;DHT22;32190;49.112;8.598;2022-09-03T01:03:40;23.90;42.40
32147;DHT22;32190;49.112;8.598;2022-09-03T01:28:22;23.80;42.50
32147;DHT22;32190;49.112;8.598;2022-09-03T01:34:28;23.80;42.60
32147;DHT22;32190;49.112;8.598;2022-09-03T01:40:59;23.90;42.60
32147;DHT22;32190;49.112;8.598;2022-09-03T01:47:42;23.90;42.90
32147;DHT22;32190;49.112;8.598;2022-09-03T01:59:50;23.80;42.60
32147;DHT22;32190;49.112;8.598;2022-09-03T02:05:42;23.80;43.40
32147;DHT22;32190;49.112;8.598;2022-09-03T02:11:33;23.80;42.70
32147;DHT22;32190;49.112;8.598;2022-09-03T02:17:24;23.80;43.00
32147;DHT22;32190;49.112;8.598;2022-09-03T02:23:15;23.70;42.80
32147;DHT22;32190;49.112;8.598;2022-09-03T02:29:06;23.70;43.10
32147;DHT22;32190;49.112;8.598;2022-09-03T02:34:57;23.60;43.10
32147;DHT22;32190;49.112;8.598;2022-09-03T02:40:48;23.50;43.20
32147;DHT22;32190;49.112;8.598;2022-09-03T02:46:44;23.50;43.30
32147;DHT22;32190;49.112;8.598;2022-09-03T02:52:36;23.40;43.50
32147;DHT22;32190;49.112;8.598;2022-09-03T02:58:27;23.40;43.30
32147;DHT22;32190;49.112;8.598;2022-09-03T03:04:17;23.30;43.50
32147;DHT22;32190;49.112;8.598;2022-09-03T03:10:08;23.20;43.70
32147;DHT22;32190;49.112;8.598;2022-09-03T03:16:01;23.20;43.70
32147;DHT22;32190;49.112;8.598;2022-09-03T03:21:52;23.20;44.00
32147;DHT22;32190;49.112;8.598;2022-09-03T03:27:42;23.20;44.00
32147;DHT22;32190;49.112;8.598;2022-09-03T03:33:33;23.20;43.90
32147;DHT22;32190;49.112;8.598;2022-09-03T03:39:24;23.10;43.80
32147;DHT22;32190;49.112;8.598;2022-09-03T03:45:15;23.10;43.70
32147;DHT22;32190;49.112;8.598;2022-09-03T03:51:07;23.10;43.70
32147;DHT22;32190;49.112;8.598;2022-09-03T03:56:58;23.10;43.60
32147;DHT22;32190;49.112;8.598;2022-09-03T04:02:49;23.10;43.40
32147;DHT22;32190;49.112;8.598;2022-09-03T04:08:41;23.10;43.40
32147;DHT22;32190;49.112;8.598;2022-09-03T04:14:32;23.10;43.40
32147;DHT22;32190;49.112;8.598;2022-09-03T04:20:22;23.20;43.50
32147;DHT22;32190;49.112;8.598;2022-09-03T04:26:15;23.20;43.70
32147;DHT22;32190;49.112;8.598;2022-09-03T04:32:06;23.10;43.80
32147;DHT22;32190;49.112;8.598;2022-09-03T04:38:15;23.10;44.40
32147;DHT22;32190;49.112;8.598;2022-09-03T04:44:06;23.10;44.00
32147;DHT22;32190;49.112;8.598;2022-09-03T04:49:57;23.10;44.40
32147;DHT22;32190;49.112;8.598;2022-09-03T04:55:48;23.00;44.50
32147;DHT22;32190;49.112;8.598;2022-09-03T05:01:39;23.00;45.10
32147;DHT22;32190;49.112;8.598;2022-09-03T05:07:29;23.00;45.20
32147;DHT22;32190;49.112;8.598;2022-09-03T05:13:27;22.90;45.20
32147;DHT22;32190;49.112;8.598;2022-09-03T05:19:18;22.90;45.20
32147;DHT22;32190;49.112;8.598;2022-09-03T05:25:08;22.80;45.40
32147;DHT22;32190;49.112;8.598;2022-09-03T05:31:00;22.90;45.70
32147;DHT22;32190;49.112;8.598;2022-09-03T05:36:51;22.80;46.00
32147;DHT22;32190;49.112;8.598;2022-09-03T05:42:42;22.80;46.40
32147;DHT22;32190;49.112;8.598;2022-09-03T05:48:34;22.70;46.60
32147;DHT22;32190;49.112;8.598;2022-09-03T05:54:24;22.60;46.80
32147;DHT22;32190;49.112;8.598;2022-09-03T06:00:16;22.60;46.90
32147;DHT22;32190;49.112;8.598;2022-09-03T06:06:09;22.60;46.90
32147;DHT22;32190;49.112;8.598;2022-09-03T06:12:00;22.60;47.00
32147;DHT22;32190;49.112;8.598;2022-09-03T06:17:51;22.70;47.30
32147;DHT22;32190;49.112;8.598;2022-09-03T06:23:41;22.70;47.20
32147;DHT22;32190;49.112;8.598;2022-09-03T06:29:32;22.80;47.00
32147;DHT22;32190;49.112;8.598;2022-09-03T06:35:24;22.80;47.00
32147;DHT22;32190;49.112;8.598;2022-09-03T06:41:17;22.90;47.00
32147;DHT22;32190;49.112;8.598;2022-09-03T06:47:14;22.90;46.70
32147;DHT22;32190;49.112;8.598;2022-09-03T06:53:04;23.00;46.40
32147;DHT22;32190;49.112;8.598;2022-09-03T06:58:57;23.00;46.20
32147;DHT22;32190;49.112;8.598;2022-09-03T07:04:48;23.00;46.20
32147;DHT22;32190;49.112;8.598;2022-09-03T07:10:39;23.00;46.70
32147;DHT22;32190;49.112;8.598;2022-09-03T07:16:34;23.10;47.20
32147;DHT22;32190;49.112;8.598;2022-09-03T07:22:25;23.00;47.70
32147;DHT22;32190;49.112;8.598;2022-09-03T07:28:15;23.10;48.00
32147;DHT22;32190;49.112;8.598;2022-09-03T07:34:09;23.00;48.20
32147;DHT22;32190;49.112;8.598;2022-09-03T07:39:59;22.90;48.20
32147;DHT22;32190;49.112;8.598;2022-09-03T07:45:51;22.90;48.10
32147;DHT22;32190;49.112;8.598;2022-09-03T07:51:41;22.70;48.80
32147;DHT22;32190;49.112;8.598;2022-09-03T07:57:32;22.70;49.20
32147;DHT22;32190;49.112;8.598;2022-09-03T08:03:22;22.60;49.50
32147;DHT22;32190;49.112;8.598;2022-09-03T08:09:13;22.50;49.40
32147;DHT22;32190;49.112;8.598;2022-09-03T08:15:04;22.50;49.70
32147;DHT22;32190;49.112;8.598;2022-09-03T08:20:58;22.50;49.50
32147;DHT22;32190;49.112;8.598;2022-09-03T08:26:49;22.50;50.50
32147;DHT22;32190;49.112;8.598;2022-09-03T08:32:39;22.50;49.60
32147;DHT22;32190;49.112;8.598;2022-09-03T08:38:31;22.60;50.90
32147;DHT22;32190;49.112;8.598;2022-09-03T08:50:37;22.40;51.70
32147;DHT22;32190;49.112;8.598;2022-09-03T08:56:30;22.40;52.20
32147;DHT22;32190;49.112;8.598;2022-09-03T09:02:39;22.40;52.00
32147;DHT22;32190;49.112;8.598;2022-09-03T09:21:06;22.70;53.30
32147;DHT22;32190;49.112;8.598;2022-09-03T09:27:01;22.80;53.20
32147;DHT22;32190;49.112;8.598;2022-09-03T09:32:53;22.90;53.40
32147;DHT22;32190;49.112;8.598;2022-09-03T09:38:45;23.00;53.60
32147;DHT22;32190;49.112;8.598;2022-09-03T09:44:39;23.00;54.60
32147;DHT22;32190;49.112;8.598;2022-09-03T09:50:30;23.10;55.30
32147;DHT22;32190;49.112;8.598;2022-09-03T09:56:24;23.00;55.40
32147;DHT22;32190;49.112;8.598;2022-09-03T10:02:23;23.00;56.30
32147;DHT22;32190;49.112;8.598;2022-09-03T10:08:19;22.90;56.00
32147;DHT22;32190;49.112;8.598;2022-09-03T10:14:26;23.00;56.20
32147;DHT22;32190;49.112;8.598;2022-09-03T10:20:44;23.00;58.10
32147;DHT22;32190;49.112;8.598;2022-09-03T10:26:37;23.00;58.30
32147;DHT22;32190;49.112;8.598;2022-09-03T10:38:59;23.10;57.70
32147;DHT22;32190;49.112;8.598;2022-09-03T10:45:11;23.30;58.80
32147;DHT22;32190;49.112;8.598;2022-09-03T10:51:12;23.50;59.00
32147;DHT22;32190;49.112;8.598;2022-09-03T10:57:31;23.60;58.30
32147;DHT22;32190;49.112;8.598;2022-09-03T11:03:52;23.70;58.80
32147;DHT22;32190;49.112;8.598;2022-09-03T11:21:47;24.00;57.90
32147;DHT22;32190;49.112;8.598;2022-09-03T11:33:33;24.20;57.60
32147;DHT22;32190;49.112;8.598;2022-09-03T11:39:38;24.30;56.50
32147;DHT22;32190;49.112;8.598;2022-09-03T11:57:30;24.60;56.50
32147;DHT22;32190;49.112;8.598;2022-09-03T12:03:25;24.80;56.10
32147;DHT22;32190;49.112;8.598;2022-09-03T12:21:48;25.00;55.10
32147;DHT22;32190;49.112;8.598;2022-09-03T12:27:40;25.20;55.40
32147;DHT22;32190;49.112;8.598;2022-09-03T12:33:33;25.30;54.70
32147;DHT22;32190;49.112;8.598;2022-09-03T12:39:26;25.40;54.60
32147;DHT22;32190;49.112;8.598;2022-09-03T12:45:23;25.50;54.40
32147;DHT22;32190;49.112;8.598;2022-09-03T12:51:16;25.60;54.50
32147;DHT22;32190;49.112;8.598;2022-09-03T12:57:08;25.70;54.40
32147;DHT22;32190;49.112;8.598;2022-09-03T13:03:02;25.80;54.40
32147;DHT22;32190;49.112;8.598;2022-09-03T13:08:56;26.00;54.10
32147;DHT22;32190;49.112;8.598;2022-09-03T13:14:48;26.20;53.60
32147;DHT22;32190;49.112;8.598;2022-09-03T13:39:20;26.70;53.30
32147;DHT22;32190;49.112;8.598;2022-09-03T13:45:22;26.70;52.40
32147;DHT22;32190;49.112;8.598;2022-09-03T13:51:21;26.80;52.40
32147;DHT22;32190;49.112;8.598;2022-09-03T13:57:23;26.80;52.40
32147;DHT22;32190;49.112;8.598;2022-09-03T14:03:42;26.80;52.40
32147;DHT22;32190;49.112;8.598;2022-09-03T14:10:05;26.80;52.30
32147;DHT22;32190;49.112;8.598;2022-09-03T14:16:13;26.80;52.80
32147;DHT22;32190;49.112;8.598;2022-09-03T14:22:55;26.70;52.50
32147;DHT22;32190;49.112;8.598;2022-09-03T14:28:30;26.70;52.40
32147;DHT22;32190;49.112;8.598;2022-09-03T15:11:59;26.30;52.90
32147;DHT22;32190;49.112;8.598;2022-09-03T15:18:14;26.30;52.40
32147;DHT22;32190;49.112;8.598;2022-09-03T15:24:09;26.20;52.70
32147;DHT22;32190;49.112;8.598;2022-09-03T15:30:16;26.20;52.80
32147;DHT22;32190;49.112;8.598;2022-09-03T15:36:19;26.20;53.60
32147;DHT22;32190;49.112;8.598;2022-09-03T15:42:22;26.30;53.10
32147;DHT22;32190;49.112;8.598;2022-09-03T15:48:29;26.30;53.10
32147;DHT22;32190;49.112;8.598;2022-09-03T15:54:37;26.30;52.80
32147;DHT22;32190;49.112;8.598;2022-09-03T16:00:38;26.40;52.90
32147;DHT22;32190;49.112;8.598;2022-09-03T16:06:41;26.40;52.50
32147;DHT22;32190;49.112;8.598;2022-09-03T16:19:10;26.40;53.30
32147;DHT22;32190;49.112;8.598;2022-09-03T16:25:15;26.30;52.70
32147;DHT22;32190;49.112;8.598;2022-09-03T16:37:56;26.20;52.00
32147;DHT22;32190;49.112;8.598;2022-09-03T16:56:25;26.30;51.60
32147;DHT22;32190;49.112;8.598;2022-09-03T17:02:40;26.30;51.40
32147;DHT22;32190;49.112;8.598;2022-09-03T17:14:49;26.30;51.00
32147;DHT22;32190;49.112;8.598;2022-09-03T17:26:51;26.40;51.00
32147;DHT22;32190;49.112;8.598;2022-09-03T17:39:14;26.40;51.20
32147;DHT22;32190;49.112;8.598;2022-09-03T17:51:29;26.40;51.10
32147;DHT22;32190;49.112;8.598;2022-09-03T17:57:37;26.50;51.00
32147;DHT22;32190;49.112;8.598;2022-09-03T18:03:53;26.60;51.00
32147;DHT22;32190;49.112;8.598;2022-09-03T18:10:09;26.60;50.90
32147;DHT22;32190;49.112;8.598;2022-09-03T18:16:13;26.50;50.60
32147;DHT22;32190;49.112;8.598;2022-09-03T18:22:05;26.40;50.60
32147;DHT22;32190;49.112;8.598;2022-09-03T18:28:17;26.30;50.60
32147;DHT22;32190;49.112;8.598;2022-09-03T18:34:31;26.20;50.50
32147;DHT22;32190;49.112;8.598;2022-09-03T18:41:14;26.00;50.60
32147;DHT22;32190;49.112;8.598;2022-09-03T18:47:30;25.80;51.00
32147;DHT22;32190;49.112;8.598;2022-09-03T18:54:11;25.70;51.10
32147;DHT22;32190;49.112;8.598;2022-09-03T19:00:23;25.60;51.20
32147;DHT22;32190;49.112;8.598;2022-09-03T19:19:33;25.10;52.00
32147;DHT22;32190;49.112;8.598;2022-09-03T19:25:47;25.00;51.80
32147;DHT22;32190;49.112;8.598;2022-09-03T19:32:03;25.00;51.60
32147;DHT22;32190;49.112;8.598;2022-09-03T19:51:36;24.90;52.30
32147;DHT22;32190;49.112;8.598;2022-09-03T19:57:52;24.90;52.20
32147;DHT22;32190;49.112;8.598;2022-09-03T20:04:13;25.00;52.30
32147;DHT22;32190;49.112;8.598;2022-09-03T20:10:24;25.10;52.40
32147;DHT22;32190;49.112;8.598;2022-09-03T20:23:05;25.10;52.20
32147;DHT22;32190;49.112;8.598;2022-09-03T20:47:48;25.00;52.30
32147;DHT22;32190;49.112;8.598;2022-09-03T20:54:04;25.10;52.30
32147;DHT22;32190;49.112;8.598;2022-09-03T21:00:15;25.00;52.20
32147;DHT22;32190;49.112;8.598;2022-09-03T21:06:57;25.00;52.20
32147;DHT22;32190;49.112;8.598;2022-09-03T21:25:05;24.80;52.20
32147;DHT22;32190;49.112;8.598;2022-09-03T21:31:03;24.80;52.10
32147;DHT22;32190;49.112;8.598;2022-09-03T21:36:58;24.80;52.20
32147;DHT22;32190;49.112;8.598;2022-09-03T21:49:01;24.60;52.30
32147;DHT22;32190;49.112;8.598;2022-09-03T21:54:52;24.50;52.30
32147;DHT22;32190;49.112;8.598;2022-09-03T22:00:43;24.50;52.30
32147;DHT22;32190;49.112;8.598;2022-09-03T22:07:11;24.50;52.40
32147;DHT22;32190;49.112;8.598;2022-09-03T22:13:29;24.30;52.50
32147;DHT22;32190;49.112;8.598;2022-09-03T22:19:20;24.20;52.60
32147;DHT22;32190;49.112;8.598;2022-09-03T22:32:10;24.10;52.80
32147;DHT22;32190;49.112;8.598;2022-09-03T22:38:09;24.00;52.70
32147;DHT22;32190;49.112;8.598;2022-09-03T22:56:33;23.90;53.30
32147;DHT22;32190;49.112;8.598;2022-09-03T23:02:27;23.80;53.10
32147;DHT22;32190;49.112;8.598;2022-09-03T23:08:40;23.80;53.30
32147;DHT22;32190;49.112;8.598;2022-09-03T23:14:40;23.70;53.60
32147;DHT22;32190;49.112;8.598;2022-09-03T23:20:41;23.60;53.80
32147;DHT22;32190;49.112;8.598;2022-09-03T23:26:46;23.60;53.70
32147;DHT22;32190;49.112;8.598;2022-09-03T23:32:37;23.50;54.20
32147;DHT22;32190;49.112;8.598;2022-09-03T23:50:59;23.40;54.30
